VIDPOMAD

Guest
Details From VIDP - Indira Gandhi Intl
To OMAD - Bateen
Flight Number -
Tags Generated
Created
Modified
Stats Distance 1,240 nm / 2,296 km
Max Altitude 0 ft / 0 m
Waypoints 4
Social Downloads 1
Likes 0
Share VATSIM

Download

Looking for another format? Having issues loading an existing format? Contact us
Advertisement - Login to hide

Notes

Generated

Route

VIDP MJ AUH99 OMAD

ID Type Via Altitude Latitude Longitude Leg Dist Tot Dist Heading (true) Name
O VIDP APT - 0 ft / 0 m 28.57049˚ 77.08804˚ - 0 nm - -
MJ NDB - 0 ft / 0 m 27.33097˚ 68.14105˚ 480 nm 480 nm 263° / 259° MOENJODARO NDB
AUH99 FIX - 0 ft / 0 m 24.47341˚ 54.59480˚ 751 nm 1231 nm 260° / 254° -
O OMAD APT - 0 ft / 0 m 24.43743˚ 54.44569˚ 8 nm 1240 nm 255° / 255° -

Altitude Profile

Advertisement - Login to hide

Weather


0- 5 10 15 20 25 30 35+ Temperature / ° C

Clouds and Precipitation
Forecast for 2017-12-11 00:00 UTC. Updated an hour ago

Ground ~20,000 ft ~40,000 ft Winds

VIDP

Details ICAO VIDP (DEL)
Name INDIRA GANDHI INTL
Region India
Timezone Asia/Kolkata (UTC+5.5)
Stats Elevation 777 ft / 237 m (AMSL)
Location 28.566496° 77.103090°
Runways 2
Magnetic Variation 1.216° E

METAR

VIDP 110030Z 08004KT 1200 R28/P2000 R29/P2000 BR NSC 10/06 Q1014 NOSIG

Decode

TAF

TAF VIDP 102300Z 1100/1206 09003KT 1000 FU FEW100 BECMG 1105/1107 12006KT 2500 HZ FEW040 SCT100 TEMPO 1112/1118 25010G20KT 1200 -TSRA SCT030 FEW035CB BKN090 BECMG 1114/1116 VRB02KT 2000 BR BECMG 1121/1122 00000KT 0800 MIFG BECMG 1204/1206 12006KT 2000 BR HZ FEW040 SCT100

Decode

Departure Runways

ID Width Length Bearing (true) Bearing (mag) Surface Threshold Offset Overrun Length
09 150 ft / 46 m 9,270 ft / 2,826 m 91.50° 90.28° Asphalt 0 ft / 0 m 195 ft / 59 m
10 150 ft / 46 m 12,488 ft / 3,807 m 104.67° 103.45° Asphalt 0 ft / 0 m 880 ft / 268 m
27 150 ft / 46 m 9,270 ft / 2,826 m 271.52° 270.30° Asphalt 499 ft / 152 m 0 ft / 0 m
28 150 ft / 46 m 12,488 ft / 3,807 m 284.69° 283.47° Asphalt 0 ft / 0 m 470 ft / 143 m

OMAD

Details ICAO OMAD (AZI)
Name BATEEN
Region United Arab Emirates
Timezone Asia/Dubai (UTC+4.0)
Stats Elevation 16 ft / 5 m (AMSL)
Location 24.428597° 54.458181°
Runways 1
Magnetic Variation 2.000° E

METAR

OMAD 110000Z 29005KT 9999 SCT036 20/13 Q1019 NOSIG

Decode

TAF

TAF OMAD 102300Z 1100/1206 28005KT 8000 FEW040 BECMG 1104/1106 34012KT PROB30 TEMPO 1200/1204 BKN020

Decode

Destination Runways

ID Width Length Bearing (true) Bearing (mag) Surface Threshold Offset Overrun Length
13 151 ft / 46 m 10,509 ft / 3,203 m 127.84° 125.84° Asphalt 1,673 ft / 510 m 600 ft / 183 m
31 151 ft / 46 m 10,509 ft / 3,203 m 307.85° 305.85° Asphalt 2,644 ft / 806 m 869 ft / 265 m

Popular Alternatives